Time;durP1;ratioP1;P1;durP2;ratioP2;P2;SDS_P1;SDS_P2;PMS_P1;PMS_P2;Temp;Humidity;BMP_temperature;BMP_pressure;BME280_temperature;BME280_humidity;BME280_pressure;Samples;Min_cycle;Max_cycle;Signal;HPM_P1;HPM_P2
2021/10/16 00:16:55;;;;;;;18.27;13.40;;;10.90;91.00;;;;;;5049733;28;20215;-88
2021/10/16 00:19:25;;;;;;;21.38;16.73;;;11.00;90.50;;;;;;5048235;28;20234;-89
2021/10/16 00:21:54;;;;;;;19.77;15.32;;;11.10;90.50;;;;;;5050734;28;20203;-89
2021/10/16 00:44:40;;;;;;;13.35;8.65;;;11.40;90.00;;;;;;5026194;28;20241;-90
2021/10/16 00:55:30;;;;;;;8.93;7.25;;;11.30;88.20;;;;;;5046206;28;20256;-90
2021/10/16 01:04:35;;;;;;;9.48;7.55;;;11.40;85.50;;;;;;5027710;28;20284;-89
2021/10/16 01:07:03;;;;;;;11.68;8.18;;;11.20;86.00;;;;;;5038223;28;20564;-90
2021/10/16 01:09:31;;;;;;;12.27;8.43;;;11.10;85.90;;;;;;5045908;28;20558;-89
2021/10/16 01:11:59;;;;;;;11.18;8.82;;;11.00;86.40;;;;;;5028266;28;20207;-90
2021/10/16 01:14:28;;;;;;;8.90;7.97;;;10.80;87.10;;;;;;5045571;28;20237;-89
2021/10/16 01:16:58;;;;;;;11.60;9.65;;;10.80;87.80;;;;;;5044932;28;20253;-90
2021/10/16 01:19:29;;;;;;;13.98;9.80;;;10.80;88.20;;;;;;5033382;28;20223;-89
2021/10/16 01:27:21;;;;;;;12.95;9.05;;;11.20;88.80;;;;;;5042424;28;20673;-89
2021/10/16 02:05:55;;;;;;;10.23;8.00;;;11.60;86.70;;;;;;5046737;28;20260;-89
2021/10/16 02:30:36;;;;;;;9.68;6.88;;;10.80;91.40;;;;;;5004323;28;20217;-90
2021/10/16 02:33:03;;;;;;;10.15;7.25;;;10.70;91.30;;;;;;5026552;28;20211;-91
2021/10/16 02:41:23;;;;;;;7.05;6.10;;;10.90;92.00;;;;;;5049288;28;20202;-88
2021/10/16 02:46:50;;;;;;;8.00;6.38;;;11.10;90.90;;;;;;5047184;28;20221;-88
2021/10/16 02:49:17;;;;;;;9.05;6.13;;;11.20;90.70;;;;;;5031257;28;20230;-89
2021/10/16 02:51:44;;;;;;;6.70;5.80;;;11.30;90.60;;;;;;5031299;28;20258;-89
2021/10/16 02:54:12;;;;;;;6.70;5.68;;;11.20;90.80;;;;;;5051909;28;20245;-90
2021/10/16 02:56:55;;;;;;;9.02;5.93;;;11.30;90.60;;;;;;5054784;28;20229;-88
2021/10/16 02:59:24;;;;;;;8.13;6.20;;;11.20;90.60;;;;;;5051211;28;20266;-89
2021/10/16 03:01:53;;;;;;;7.90;5.15;;;11.00;90.80;;;;;;5053948;28;20277;-90
2021/10/16 03:04:20;;;;;;;5.88;5.28;;;10.80;91.70;;;;;;5051654;28;20290;-89
2021/10/16 03:06:49;;;;;;;6.95;5.25;;;10.90;91.20;;;;;;5056665;28;20224;-88
2021/10/16 03:09:17;;;;;;;7.53;5.50;;;10.80;91.80;;;;;;5060345;28;20222;-88
2021/10/16 03:11:45;;;;;;;7.15;5.53;;;10.90;91.60;;;;;;5029569;28;20229;-89
2021/10/16 03:14:12;;;;;;;6.70;5.15;;;10.70;91.60;;;;;;5051424;28;20268;-88
2021/10/16 03:16:42;;;;;;;6.10;4.90;;;10.50;92.40;;;;;;5054533;28;20189;-89
2021/10/16 03:21:52;;;;;;;6.15;4.85;;;10.80;92.70;;;;;;5040455;28;20202;-88
2021/10/16 03:24:20;;;;;;;6.28;5.07;;;11.00;92.20;;;;;;5034719;28;20211;-89
2021/10/16 03:26:47;;;;;;;7.03;5.30;;;10.80;92.00;;;;;;5033548;28;20190;-89
2021/10/16 03:29:14;;;;;;;6.97;5.30;;;10.60;92.20;;;;;;5058355;28;20662;-89
2021/10/16 03:34:33;;;;;;;5.65;4.93;;;10.60;93.20;;;;;;5044052;28;20245;-89
2021/10/16 03:43:00;;;;;;;7.03;5.07;;;10.70;93.20;;;;;;5069762;28;20194;-90
2021/10/16 03:45:27;;;;;;;6.97;5.30;;;10.90;92.60;;;;;;5041762;28;20258;-89
2021/10/16 03:47:56;;;;;;;7.28;5.35;;;10.90;91.90;;;;;;5061736;28;20658;-88
2021/10/16 03:50:24;;;;;;;7.68;4.82;;;10.70;92.30;;;;;;5051744;28;20241;-89
2021/10/16 03:52:53;;;;;;;7.15;5.57;;;10.50;92.60;;;;;;5050566;28;20222;-89
2021/10/16 03:55:21;;;;;;;7.57;5.22;;;10.40;93.00;;;;;;5024757;28;20230;-88
2021/10/16 04:00:29;;;;;;;7.32;5.55;;;10.50;93.80;;;;;;5027421;28;20215;-88
2021/10/16 04:03:03;;;;;;;7.10;5.63;;;10.70;93.00;;;;;;5021383;28;20225;-88
2021/10/16 04:05:30;;;;;;;6.57;5.50;;;10.60;92.90;;;;;;5041475;28;20234;-88
2021/10/16 04:07:57;;;;;;;7.97;6.05;;;10.40;93.10;;;;;;5050972;28;20237;-89
2021/10/16 04:10:25;;;;;;;8.02;5.78;;;10.30;93.60;;;;;;5030572;28;20226;-88
2021/10/16 04:12:54;;;;;;;6.85;5.82;;;10.30;94.50;;;;;;5031297;28;20288;-88
2021/10/16 04:15:21;;;;;;;6.90;6.00;;;10.40;93.90;;;;;;5047039;28;20984;-87
2021/10/16 04:17:49;;;;;;;7.50;6.05;;;10.30;93.90;;;;;;5048727;28;20262;-87
2021/10/16 04:20:19;;;;;;;7.00;5.72;;;10.20;94.30;;;;;;5044601;28;20218;-87
2021/10/16 04:22:46;;;;;;;7.38;5.28;;;10.40;94.80;;;;;;5043258;28;20214;-88
2021/10/16 04:25:13;;;;;;;8.88;7.03;;;10.60;94.30;;;;;;5046889;28;20222;-88
2021/10/16 04:27:46;;;;;;;9.40;6.93;;;10.60;93.70;;;;;;5030667;28;20210;-87
2021/10/16 04:30:13;;;;;;;11.88;9.90;;;10.60;93.70;;;;;;5044828;28;20290;-87
2021/10/16 04:32:40;;;;;;;11.32;9.10;;;10.50;93.20;;;;;;5022935;28;20191;-87
2021/10/16 04:35:09;;;;;;;10.35;8.00;;;10.50;93.20;;;;;;5038801;28;20237;-88
2021/10/16 04:37:38;;;;;;;10.18;9.00;;;10.50;93.00;;;;;;5048257;28;20275;-88
2021/10/16 04:40:12;;;;;;;12.32;9.48;;;10.60;92.90;;;;;;5045983;28;20229;-88
2021/10/16 04:42:39;;;;;;;13.55;9.63;;;10.50;92.60;;;;;;5055838;28;20530;-87
2021/10/16 04:45:08;;;;;;;15.30;8.73;;;10.40;92.60;;;;;;5056306;28;20238;-87
2021/10/16 04:47:36;;;;;;;10.20;8.93;;;10.60;92.90;;;;;;5046162;28;20199;-89
2021/10/16 04:50:05;;;;;;;9.75;7.97;;;10.60;92.60;;;;;;5029768;28;20294;-88
2021/10/16 04:52:33;;;;;;;10.02;8.35;;;10.70;92.70;;;;;;5045750;28;20208;-88
2021/10/16 04:55:01;;;;;;;12.30;8.18;;;10.60;92.20;;;;;;5045278;28;20313;-88
2021/10/16 04:57:28;;;;;;;11.60;8.55;;;10.70;92.30;;;;;;5031893;28;20230;-88
2021/10/16 04:59:55;;;;;;;11.93;9.50;;;10.60;92.30;;;;;;5044501;28;20233;-88
2021/10/16 05:02:24;;;;;;;12.73;8.77;;;10.30;92.60;;;;;;5045965;28;20202;-88
2021/10/16 05:04:51;;;;;;;10.85;9.13;;;10.20;93.50;;;;;;5047925;28;20260;-88
2021/10/16 05:07:18;;;;;;;13.05;9.60;;;10.40;93.00;;;;;;5056459;28;21287;-90
2021/10/16 05:09:45;;;;;;;15.00;9.15;;;10.30;92.80;;;;;;5052632;28;20305;-88
2021/10/16 05:12:13;;;;;;;10.23;8.85;;;10.30;93.60;;;;;;5045194;28;20226;-88
2021/10/16 05:14:40;;;;;;;10.88;8.48;;;10.40;93.60;;;;;;5044462;28;20229;-88
2021/10/16 05:17:09;;;;;;;12.20;8.68;;;10.40;93.10;;;;;;5044466;28;20225;-88
2021/10/16 05:19:36;;;;;;;9.80;8.40;;;10.60;92.80;;;;;;5042422;28;20224;-89
2021/10/16 05:22:04;;;;;;;10.90;9.10;;;10.40;92.70;;;;;;5033500;28;20210;-89
2021/10/16 05:24:31;;;;;;;10.93;8.15;;;10.20;92.90;;;;;;5035618;28;20306;-88
2021/10/16 05:26:58;;;;;;;10.82;8.50;;;10.20;93.80;;;;;;5042497;28;20207;-88
2021/10/16 05:29:26;;;;;;;13.80;8.55;;;10.30;93.40;;;;;;5041540;28;20222;-88
2021/10/16 05:31:53;;;;;;;13.25;8.18;;;10.30;93.10;;;;;;5039694;28;20206;-89
2021/10/16 05:34:20;;;;;;;10.98;8.52;;;10.40;93.10;;;;;;5040964;28;20282;-88
2021/10/16 05:36:47;;;;;;;10.82;8.85;;;10.30;92.90;;;;;;5035020;28;20219;-88
2021/10/16 05:39:14;;;;;;;11.65;9.45;;;10.10;92.60;;;;;;5036856;28;20238;-88
2021/10/16 05:41:41;;;;;;;12.00;9.18;;;9.90;93.70;;;;;;5043069;28;20199;-88
2021/10/16 05:44:08;;;;;;;11.32;8.63;;;9.70;94.70;;;;;;5046409;28;20229;-88
2021/10/16 05:46:37;;;;;;;11.43;8.25;;;9.90;94.40;;;;;;5040563;28;20203;-89
2021/10/16 05:49:05;;;;;;;15.40;8.38;;;9.90;94.00;;;;;;5040347;28;20222;-89
2021/10/16 05:51:33;;;;;;;14.48;8.77;;;9.80;94.40;;;;;;5046114;28;20206;-87
2021/10/16 05:54:01;;;;;;;10.15;8.68;;;10.00;93.60;;;;;;5033041;28;20560;-88
2021/10/16 05:56:28;;;;;;;9.93;7.88;;;9.90;93.40;;;;;;5024040;28;20227;-90
2021/10/16 05:58:58;;;;;;;10.30;8.30;;;9.70;93.80;;;;;;5019465;28;20198;-88
2021/10/16 06:01:28;;;;;;;11.45;8.45;;;9.70;94.50;;;;;;5035974;28;20233;-88
2021/10/16 06:03:57;;;;;;;11.40;8.35;;;9.80;94.40;;;;;;5023731;28;20205;-89
2021/10/16 06:06:24;;;;;;;9.80;8.18;;;9.80;94.50;;;;;;5008742;28;20194;-88
2021/10/16 06:08:51;;;;;;;9.60;7.90;;;9.70;94.20;;;;;;5039021;28;20192;-88
2021/10/16 06:11:18;;;;;;;10.68;8.35;;;9.70;94.20;;;;;;5026063;28;20257;-88
2021/10/16 06:13:45;;;;;;;10.18;8.07;;;9.50;94.30;;;;;;5024397;28;20227;-90
2021/10/16 06:16:13;;;;;;;11.02;8.05;;;9.50;94.80;;;;;;5042820;28;20243;-89
2021/10/16 06:18:43;;;;;;;10.00;7.57;;;9.50;95.60;;;;;;5041298;28;20198;-89
2021/10/16 06:21:24;;;;;;;8.68;7.68;;;9.70;94.80;;;;;;5041063;28;20219;-89
2021/10/16 06:23:51;;;;;;;11.57;8.45;;;9.80;94.30;;;;;;5044872;28;20202;-88
2021/10/16 06:26:18;;;;;;;11.48;8.48;;;9.60;94.40;;;;;;5039830;28;20217;-88
2021/10/16 06:28:45;;;;;;;13.70;8.48;;;9.50;94.80;;;;;;5004543;28;20206;-88
2021/10/16 06:31:12;;;;;;;9.93;8.23;;;9.60;94.90;;;;;;5043035;28;20198;-88
2021/10/16 06:33:39;;;;;;;10.30;8.48;;;9.70;94.80;;;;;;5044956;28;20194;-88
2021/10/16 06:36:06;;;;;;;10.25;8.63;;;9.80;94.70;;;;;;5035096;28;20230;-88
2021/10/16 06:38:35;;;;;;;10.50;8.73;;;9.80;94.30;;;;;;5022832;28;20635;-89
2021/10/16 06:41:02;;;;;;;9.32;7.25;;;9.80;94.80;;;;;;5042210;28;20233;-88
2021/10/16 06:43:30;;;;;;;10.10;7.03;;;10.00;93.90;;;;;;5041902;28;20205;-88
2021/10/16 06:45:57;;;;;;;9.05;7.07;;;10.10;93.40;;;;;;5041803;28;20229;-91
2021/10/16 06:48:24;;;;;;;9.82;6.93;;;9.90;93.50;;;;;;5015374;28;20313;-88
2021/10/16 06:50:51;;;;;;;8.98;7.68;;;9.90;94.20;;;;;;5046507;28;20267;-88
2021/10/16 06:53:19;;;;;;;8.57;6.90;;;9.70;93.90;;;;;;5029493;28;20871;-89
2021/10/16 06:55:49;;;;;;;7.82;6.65;;;9.60;94.50;;;;;;5041914;28;20648;-88
2021/10/16 06:58:20;;;;;;;8.30;6.60;;;9.70;95.10;;;;;;5045309;28;20263;-88
2021/10/16 07:00:47;;;;;;;9.32;6.88;;;9.80;94.40;;;;;;5027693;28;20226;-90
2021/10/16 07:03:15;;;;;;;9.65;6.65;;;9.70;94.70;;;;;;5045885;28;20666;-88
2021/10/16 07:05:42;;;;;;;9.52;6.72;;;9.90;94.70;;;;;;5043738;28;20283;-88
2021/10/16 07:08:09;;;;;;;7.47;6.68;;;9.90;94.10;;;;;;5035433;28;20241;-90
2021/10/16 07:10:38;;;;;;;8.48;6.93;;;9.80;94.10;;;;;;5033564;28;20229;-90
2021/10/16 07:15:47;;;;;;;7.90;6.43;;;10.00;93.70;;;;;;5024133;28;20230;-89
2021/10/16 07:18:14;;;;;;;8.70;6.90;;;10.30;93.20;;;;;;5036698;28;20271;-89
2021/10/16 07:20:41;;;;;;;9.20;7.80;;;10.30;93.10;;;;;;5034015;28;20226;-91
2021/10/16 07:23:08;;;;;;;10.25;7.22;;;10.30;92.80;;;;;;5035796;28;20275;-91
2021/10/16 07:25:36;;;;;;;10.60;7.95;;;10.30;93.10;;;;;;5045403;28;20290;-88
2021/10/16 07:28:03;;;;;;;10.23;8.35;;;10.20;93.10;;;;;;5041995;28;20223;-88
2021/10/16 07:34:02;;;;;;;11.00;8.05;;;10.20;93.80;;;;;;5035535;28;20203;-88
2021/10/16 07:36:34;;;;;;;14.40;9.73;;;10.20;94.00;;;;;;5023278;28;20221;-89
2021/10/16 07:39:06;;;;;;;10.15;8.52;;;10.20;93.10;;;;;;5034851;28;20550;-87
2021/10/16 07:41:37;;;;;;;11.50;8.75;;;10.20;93.70;;;;;;5031632;28;20203;-87
2021/10/16 07:50:55;;;;;;;13.50;10.95;;;10.70;93.20;;;;;;5031628;28;20239;-89
2021/10/16 07:53:32;;;;;;;49.20;36.78;;;10.80;92.90;;;;;;5029833;28;20234;-90
2021/10/16 07:55:59;;;;;;;119.03;88.10;;;10.80;93.00;;;;;;5022837;28;20238;-90
2021/10/16 07:58:39;;;;;;;65.40;44.60;;;11.00;92.70;;;;;;5023515;28;20286;-90
2021/10/16 08:01:06;;;;;;;29.58;20.75;;;11.20;92.00;;;;;;5035973;28;20227;-91
2021/10/16 08:03:44;;;;;;;18.63;14.77;;;11.20;91.80;;;;;;5017517;28;20206;-92
2021/10/16 08:06:14;;;;;;;22.75;15.75;;;11.00;91.70;;;;;;5024777;28;20652;-90
2021/10/16 08:08:41;;;;;;;22.00;16.73;;;10.90;91.70;;;;;;5040613;28;20209;-91
2021/10/16 08:11:10;;;;;;;23.48;16.15;;;10.80;92.00;;;;;;5047499;28;20294;-88
2021/10/16 08:13:47;;;;;;;17.77;14.77;;;10.90;91.80;;;;;;5015327;28;20230;-90
2021/10/16 08:16:14;;;;;;;22.33;15.95;;;11.00;91.50;;;;;;5022511;28;20222;-87
2021/10/16 08:18:42;;;;;;;20.13;16.00;;;11.00;91.00;;;;;;5041127;28;20211;-88
2021/10/16 08:21:31;;;;;;;21.17;15.60;;;11.10;90.90;;;;;;5049881;28;20263;-88
2021/10/16 08:27:46;;;;;;;19.63;15.35;;;11.50;90.60;;;;;;5024288;28;20174;-91
2021/10/16 08:30:16;;;;;;;22.92;16.08;;;11.60;90.00;;;;;;5028792;28;20237;-90
2021/10/16 08:32:43;;;;;;;18.23;15.30;;;11.70;89.50;;;;;;5030903;28;20207;-87
2021/10/16 08:35:11;;;;;;;20.23;15.75;;;11.70;89.20;;;;;;5045631;28;20234;-88
2021/10/16 08:37:40;;;;;;;19.13;15.52;;;11.70;88.50;;;;;;5042687;28;20246;-88
2021/10/16 08:43:44;;;;;;;19.27;15.25;;;11.70;89.80;;;;;;5045306;28;20185;-86
2021/10/16 08:46:16;;;;;;;20.70;15.07;;;11.70;88.50;;;;;;5046317;28;20210;-88
2021/10/16 08:48:47;;;;;;;19.02;15.55;;;11.70;89.30;;;;;;5050506;28;20198;-88
2021/10/16 08:54:39;;;;;;;17.02;14.10;;;12.40;87.20;;;;;;4987009;28;20236;-90
2021/10/16 08:57:08;;;;;;;19.23;13.35;;;13.00;84.00;;;;;;4967738;29;20292;-89
2021/10/16 08:59:35;;;;;;;16.60;13.60;;;13.10;80.80;;;;;;5019261;28;20222;-89
2021/10/16 09:02:04;;;;;;;18.13;13.88;;;13.20;79.50;;;;;;5032543;28;20297;-90
2021/10/16 09:04:32;;;;;;;18.30;13.57;;;13.30;77.80;;;;;;5029973;28;20226;-89
2021/10/16 09:06:59;;;;;;;14.80;13.07;;;13.50;77.20;;;;;;5036355;28;20202;-91
2021/10/16 09:09:27;;;;;;;15.20;12.52;;;13.70;76.40;;;;;;5043264;28;20222;-89
2021/10/16 09:11:56;;;;;;;15.95;12.32;;;14.60;71.80;;;;;;5037296;28;20634;-90
2021/10/16 09:14:24;;;;;;;16.40;12.73;;;15.20;63.80;;;;;;5029913;28;20800;-89
2021/10/16 09:16:54;;;;;;;13.90;12.40;;;15.70;56.60;;;;;;5044637;28;20226;-88
2021/10/16 09:19:23;;;;;;;16.08;13.32;;;15.70;55.70;;;;;;5040045;28;20225;-88
2021/10/16 09:21:53;;;;;;;15.40;13.00;;;16.30;53.30;;;;;;5038513;28;20217;-89
2021/10/16 09:24:22;;;;;;;13.75;12.35;;;17.30;47.60;;;;;;5032382;28;20678;-90
2021/10/16 09:26:51;;;;;;;15.00;11.40;;;17.60;43.80;;;;;;5035681;28;20324;-89
2021/10/16 09:29:21;;;;;;;13.80;12.23;;;17.20;45.50;;;;;;5035454;28;20569;-90
2021/10/16 09:31:51;;;;;;;12.85;11.55;;;17.00;45.80;;;;;;5035593;28;20194;-89
2021/10/16 09:34:26;;;;;;;13.13;11.82;;;17.50;46.50;;;;;;5033646;28;20252;-86
2021/10/16 09:37:01;;;;;;;14.90;10.63;;;18.00;41.30;;;;;;5037546;28;20228;-88
2021/10/16 09:39:28;;;;;;;11.50;10.30;;;17.90;41.10;;;;;;5032587;28;20217;-89
2021/10/16 09:41:58;;;;;;;12.85;10.82;;;17.00;43.60;;;;;;5033984;28;20197;-89
2021/10/16 09:44:29;;;;;;;12.65;10.23;;;16.60;45.80;;;;;;5035847;28;20252;-89
2021/10/16 09:47:04;;;;;;;13.07;10.75;;;16.30;47.60;;;;;;5038686;28;20201;-88
2021/10/16 09:49:34;;;;;;;14.40;11.23;;;16.20;48.70;;;;;;5032503;28;20304;-89
2021/10/16 09:52:02;;;;;;;13.57;10.50;;;16.20;48.90;;;;;;5034905;28;20281;-91
2021/10/16 09:54:30;;;;;;;18.20;16.35;;;16.10;49.20;;;;;;5030920;28;20226;-92
2021/10/16 09:57:00;;;;;;;20.83;17.77;;;15.90;52.20;;;;;;5027448;28;20326;-92
2021/10/16 10:02:11;;;;;;;15.82;11.60;;;17.70;42.40;;;;;;5022241;28;20237;-90
2021/10/16 10:04:41;;;;;;;10.50;9.40;;;18.80;38.00;;;;;;5022865;28;20226;-90
2021/10/16 10:07:09;;;;;;;12.95;10.65;;;19.70;33.30;;;;;;5018095;28;20677;-88
2021/10/16 10:09:46;;;;;;;11.25;8.77;;;19.80;31.90;;;;;;5021670;28;20314;-88
2021/10/16 10:12:15;;;;;;;9.75;8.80;;;20.40;31.60;;;;;;5026063;28;20240;-88
2021/10/16 10:14:45;;;;;;;12.57;9.80;;;20.50;31.30;;;;;;5028714;28;20226;-89
2021/10/16 10:17:14;;;;;;;10.52;9.43;;;20.70;29.70;;;;;;5024274;28;20246;-88
2021/10/16 10:19:43;;;;;;;11.52;9.05;;;20.60;30.50;;;;;;5016945;28;20709;-89
2021/10/16 10:22:15;;;;;;;10.30;9.23;;;21.30;29.50;;;;;;5024059;28;20225;-88
2021/10/16 10:24:44;;;;;;;9.73;8.77;;;21.70;26.20;;;;;;5019256;28;20256;-88
2021/10/16 10:27:15;;;;;;;10.80;9.70;;;21.30;28.20;;;;;;5022958;28;20280;-89
2021/10/16 10:29:46;;;;;;;10.15;9.15;;;21.10;29.00;;;;;;5022884;28;20277;-88
2021/10/16 10:32:17;;;;;;;12.20;10.57;;;20.90;29.10;;;;;;5026384;28;21086;-89
2021/10/16 10:34:53;;;;;;;10.52;9.52;;;20.40;29.30;;;;;;5029451;28;20222;-86
2021/10/16 10:37:20;;;;;;;12.57;11.27;;;19.70;31.80;;;;;;5031606;28;20218;-90
2021/10/16 10:39:56;;;;;;;11.10;10.10;;;18.70;32.70;;;;;;5028434;28;20607;-90
2021/10/16 10:42:42;;;;;;;11.15;9.75;;;17.70;37.30;;;;;;5036328;28;20195;-89
2021/10/16 10:45:24;;;;;;;12.55;9.27;;;17.00;39.90;;;;;;5037301;28;20698;-87
2021/10/16 10:50:54;;;;;;;11.93;9.57;;;17.50;40.90;;;;;;5036219;28;20222;-89
2021/10/16 10:53:30;;;;;;;12.65;10.23;;;18.40;39.90;;;;;;5038614;28;20191;-88
2021/10/16 10:55:58;;;;;;;11.05;9.85;;;18.50;35.40;;;;;;5038252;28;20240;-87
2021/10/16 10:58:46;;;;;;;10.02;8.98;;;18.40;37.10;;;;;;5033845;28;20225;-87
2021/10/16 11:01:49;;;;;;;11.65;9.70;;;18.40;37.60;;;;;;5037818;28;20577;-86
2021/10/16 11:04:34;;;;;;;12.15;9.45;;;17.90;38.20;;;;;;5041690;28;20241;-87
2021/10/16 11:07:18;;;;;;;12.15;10.00;;;16.90;39.90;;;;;;5038385;28;20234;-89
2021/10/16 11:09:46;;;;;;;10.50;9.05;;;16.30;44.30;;;;;;5030026;28;20310;-85
2021/10/16 11:12:14;;;;;;;10.88;9.43;;;15.80;48.10;;;;;;5041126;28;20270;-87
2021/10/16 11:14:43;;;;;;;11.15;8.35;;;15.40;51.70;;;;;;5043872;28;20239;-87
2021/10/16 11:17:14;;;;;;;9.45;8.18;;;15.40;51.70;;;;;;5036251;28;20222;-91
2021/10/16 11:19:49;;;;;;;9.60;8.35;;;15.60;50.40;;;;;;5039583;28;20205;-88
2021/10/16 11:22:17;;;;;;;11.25;8.40;;;15.60;48.30;;;;;;5030890;28;20731;-90
2021/10/16 11:24:44;;;;;;;10.02;8.18;;;15.80;50.60;;;;;;5027455;28;20293;-89
2021/10/16 11:27:11;;;;;;;9.00;7.47;;;15.80;49.00;;;;;;5032110;28;20210;-90
2021/10/16 11:29:40;;;;;;;10.38;8.20;;;15.90;50.50;;;;;;5024353;28;20237;-90
2021/10/16 11:32:22;;;;;;;10.35;7.55;;;16.10;47.50;;;;;;5043274;28;20199;-91
2021/10/16 11:34:58;;;;;;;9.85;7.45;;;16.30;47.20;;;;;;5038822;28;20225;-90
2021/10/16 11:37:38;;;;;;;6.93;6.15;;;16.50;43.40;;;;;;5035448;28;20292;-90
2021/10/16 11:40:18;;;;;;;9.43;6.88;;;16.80;42.30;;;;;;5035610;28;20332;-90
2021/10/16 11:42:48;;;;;;;6.70;6.05;;;16.90;39.60;;;;;;5020522;28;20191;-90
2021/10/16 11:45:17;;;;;;;8.77;5.68;;;16.70;40.60;;;;;;5035826;28;20229;-92
2021/10/16 11:47:51;;;;;;;7.60;5.57;;;16.40;39.50;;;;;;5045048;28;20191;-89
2021/10/16 11:50:20;;;;;;;6.43;5.50;;;16.30;42.80;;;;;;5036353;28;20230;-92
2021/10/16 11:52:49;;;;;;;8.25;6.50;;;16.40;43.00;;;;;;5041069;28;20209;-89
2021/10/16 11:55:19;;;;;;;8.75;6.95;;;16.50;41.80;;;;;;5038716;28;20233;-90
2021/10/16 11:57:46;;;;;;;7.40;6.53;;;16.50;42.90;;;;;;5037751;28;20218;-89
2021/10/16 12:00:20;;;;;;;7.05;6.22;;;16.60;42.50;;;;;;5040584;28;20219;-92
2021/10/16 12:02:49;;;;;;;9.52;7.50;;;16.30;43.50;;;;;;5039364;28;20252;-91
2021/10/16 12:05:18;;;;;;;6.95;6.28;;;15.80;45.70;;;;;;5037557;28;20306;-92
2021/10/16 12:07:45;;;;;;;7.28;6.53;;;15.80;48.20;;;;;;5022292;28;20199;-90
2021/10/16 12:10:21;;;;;;;7.57;6.40;;;15.60;47.90;;;;;;5033379;28;20222;-90
2021/10/16 12:13:08;;;;;;;32.22;24.00;;;15.50;45.00;;;;;;5035939;28;20214;-92
2021/10/16 12:15:39;;;;;;;13.82;11.45;;;15.30;48.30;;;;;;5032383;28;20215;-92
2021/10/16 12:18:20;;;;;;;7.50;6.70;;;15.20;48.20;;;;;;5028215;28;20218;-92
2021/10/16 12:21:07;;;;;;;8.10;6.63;;;15.00;51.40;;;;;;5023522;28;20697;-91
2021/10/16 12:23:44;;;;;;;8.23;6.38;;;15.00;50.20;;;;;;5021930;28;20678;-90
2021/10/16 12:26:20;;;;;;;8.27;6.32;;;14.90;51.30;;;;;;5026286;28;20226;-90
2021/10/16 12:28:47;;;;;;;6.60;5.40;;;15.00;51.40;;;;;;5020184;28;20256;-92
2021/10/16 12:31:44;;;;;;;10.25;6.00;;;15.00;51.30;;;;;;5014870;28;20203;-92
2021/10/16 12:34:20;;;;;;;6.53;5.47;;;15.10;50.00;;;;;;5028957;28;20249;-90
2021/10/16 12:36:52;;;;;;;6.97;5.70;;;15.00;49.40;;;;;;5029460;28;20638;-92
2021/10/16 12:39:26;;;;;;;8.48;5.60;;;15.00;52.50;;;;;;5054651;28;20233;-90
2021/10/16 12:41:54;;;;;;;7.30;5.88;;;15.30;50.60;;;;;;5024772;28;20654;-91
2021/10/16 12:44:23;;;;;;;7.75;6.32;;;15.50;50.30;;;;;;5025525;28;20230;-92
2021/10/16 12:47:10;;;;;;;6.95;6.18;;;15.80;48.30;;;;;;5023151;28;20195;-90
2021/10/16 12:49:42;;;;;;;8.23;6.07;;;15.80;47.90;;;;;;5036104;28;20222;-92
2021/10/16 12:52:28;;;;;;;6.78;5.63;;;15.70;46.80;;;;;;5026247;28;20203;-90
2021/10/16 12:54:58;;;;;;;6.32;5.70;;;15.40;49.50;;;;;;5031199;28;20222;-91
2021/10/16 12:57:33;;;;;;;6.20;5.53;;;15.40;49.80;;;;;;5027148;28;20219;-91
2021/10/16 13:00:02;;;;;;;6.63;5.95;;;15.10;48.90;;;;;;5019401;28;20222;-90
2021/10/16 13:02:29;;;;;;;6.75;5.70;;;14.90;49.30;;;;;;5023181;28;20199;-90
2021/10/16 13:04:57;;;;;;;7.95;5.93;;;14.70;51.10;;;;;;5027228;28;20223;-92
2021/10/16 13:07:24;;;;;;;6.10;5.50;;;14.50;50.90;;;;;;5019529;28;20290;-92
2021/10/16 13:09:51;;;;;;;6.38;5.70;;;14.30;50.70;;;;;;5030123;28;20221;-91
2021/10/16 13:12:18;;;;;;;6.35;5.70;;;14.20;52.30;;;;;;5032773;28;20222;-91
2021/10/16 13:14:45;;;;;;;6.45;5.40;;;14.10;55.40;;;;;;5031320;28;20215;-91
2021/10/16 13:17:12;;;;;;;6.65;5.72;;;14.00;55.30;;;;;;5034419;28;20222;-90
2021/10/16 13:19:39;;;;;;;8.45;5.65;;;13.90;54.60;;;;;;5034127;28;20223;-90
2021/10/16 13:22:08;;;;;;;6.53;5.57;;;13.80;56.70;;;;;;5037407;28;20264;-93
2021/10/16 13:24:35;;;;;;;8.73;6.78;;;13.80;57.00;;;;;;5040630;28;20227;-89
2021/10/16 13:27:02;;;;;;;5.57;5.07;;;13.80;58.30;;;;;;5038082;28;20249;-89
2021/10/16 13:29:29;;;;;;;6.47;5.25;;;13.90;57.20;;;;;;5038471;28;20249;-89
2021/10/16 13:32:02;;;;;;;6.22;5.30;;;14.00;55.40;;;;;;5041282;28;20267;-93
2021/10/16 13:34:29;;;;;;;9.25;5.38;;;14.20;55.30;;;;;;5036854;28;20240;-89
2021/10/16 13:36:56;;;;;;;5.80;5.13;;;14.30;53.80;;;;;;5042701;28;20202;-90
2021/10/16 13:39:25;;;;;;;6.28;5.25;;;14.40;52.40;;;;;;5042846;28;20305;-90
2021/10/16 13:41:52;;;;;;;5.53;4.85;;;14.60;51.00;;;;;;5039541;28;20220;-89
2021/10/16 13:44:19;;;;;;;7.50;5.97;;;14.70;51.10;;;;;;5040196;28;20232;-89
2021/10/16 13:46:46;;;;;;;6.43;5.13;;;15.00;51.40;;;;;;5042876;28;20194;-91
2021/10/16 13:49:13;;;;;;;4.82;4.38;;;15.10;51.50;;;;;;5037403;28;20719;-90
2021/10/16 13:51:43;;;;;;;7.10;5.65;;;15.00;52.60;;;;;;5027923;28;20217;-90
2021/10/16 13:54:11;;;;;;;7.32;5.28;;;15.00;51.40;;;;;;5032169;28;20226;-92
2021/10/16 13:56:41;;;;;;;6.18;5.57;;;14.80;51.20;;;;;;5031662;28;20213;-91
2021/10/16 13:59:09;;;;;;;5.30;4.80;;;14.60;52.80;;;;;;5032133;28;20317;-91
2021/10/16 14:01:36;;;;;;;5.68;4.88;;;14.60;54.00;;;;;;5029083;28;20199;-90
2021/10/16 14:04:04;;;;;;;6.15;5.55;;;14.60;53.90;;;;;;5037308;28;20230;-89
2021/10/16 14:06:31;;;;;;;5.63;5.03;;;14.50;53.00;;;;;;5037269;28;20195;-90
2021/10/16 14:08:58;;;;;;;6.22;5.10;;;14.50;50.90;;;;;;5043776;28;20195;-90
2021/10/16 14:11:25;;;;;;;5.40;4.70;;;14.40;51.60;;;;;;5048213;28;20281;-90
2021/10/16 14:13:53;;;;;;;6.40;5.15;;;14.40;50.80;;;;;;5042215;28;20228;-89
2021/10/16 14:16:20;;;;;;;6.18;5.47;;;14.40;51.50;;;;;;5042442;28;20570;-89
2021/10/16 14:18:47;;;;;;;7.32;5.20;;;14.40;53.90;;;;;;5031067;28;20219;-90
2021/10/16 14:21:15;;;;;;;7.10;5.40;;;14.40;52.50;;;;;;5040532;28;20266;-89
2021/10/16 14:23:42;;;;;;;6.95;5.05;;;14.40;52.20;;;;;;5041859;28;20287;-90
2021/10/16 14:26:10;;;;;;;5.50;5.00;;;14.40;52.60;;;;;;5030876;28;20234;-90
2021/10/16 14:28:37;;;;;;;6.00;5.25;;;14.40;54.00;;;;;;5041314;28;20269;-89
2021/10/16 14:31:08;;;;;;;8.32;5.75;;;14.40;53.70;;;;;;5022466;28;20223;-89
2021/10/16 14:33:36;;;;;;;6.57;5.22;;;14.50;53.50;;;;;;5037111;28;20202;-89
2021/10/16 14:36:04;;;;;;;6.47;5.32;;;14.40;50.80;;;;;;5039970;28;20233;-90
2021/10/16 14:38:31;;;;;;;6.75;5.25;;;14.30;50.70;;;;;;5041302;28;20249;-89
2021/10/16 14:40:58;;;;;;;6.28;5.15;;;14.20;50.60;;;;;;5043154;28;20230;-89
2021/10/16 14:43:25;;;;;;;5.85;4.93;;;14.00;52.50;;;;;;5037737;28;20270;-92
2021/10/16 14:48:51;;;;;;;4.80;4.35;;;13.70;57.10;;;;;;5045836;28;20206;-92
2021/10/16 14:51:21;;;;;;;5.57;4.80;;;13.60;57.00;;;;;;5051762;28;20244;-89
2021/10/16 14:53:49;;;;;;;12.00;7.95;;;13.50;56.70;;;;;;5053140;28;20231;-88
2021/10/16 15:00:02;;;;;;;5.10;4.60;;;13.40;58.90;;;;;;5019100;28;20209;-89
2021/10/16 15:06:43;;;;;;;6.85;6.15;;;13.20;57.50;;;;;;5049773;28;20195;-88
2021/10/16 15:09:14;;;;;;;5.57;4.70;;;13.20;59.80;;;;;;5031154;28;20593;-88
2021/10/16 15:26:23;;;;;;;5.65;4.65;;;13.30;62.60;;;;;;4993857;28;20215;-89
2021/10/16 15:39:21;;;;;;;5.88;5.15;;;13.20;63.00;;;;;;4975436;28;20255;-91
2021/10/16 15:42:24;;;;;;;5.40;4.90;;;13.20;63.50;;;;;;4954952;29;20224;-89
2021/10/16 15:49:08;;;;;;;6.78;5.75;;;13.00;65.00;;;;;;4969621;28;20197;-89
2021/10/16 15:55:22;;;;;;;8.75;5.60;;;12.80;66.10;;;;;;5005503;28;20219;-89
2021/10/16 15:57:49;;;;;;;6.70;5.30;;;12.70;67.70;;;;;;4989405;28;20254;-88
2021/10/16 16:00:17;;;;;;;5.95;5.35;;;12.60;68.90;;;;;;5005486;28;20199;-89
2021/10/16 16:03:34;;;;;;;7.93;5.50;;;12.50;69.60;;;;;;4985794;28;20311;-90
2021/10/16 16:06:18;;;;;;;6.50;5.30;;;12.50;71.50;;;;;;5024534;28;20274;-89
2021/10/16 16:08:47;;;;;;;5.85;4.93;;;12.30;75.40;;;;;;5041146;28;20208;-89
2021/10/16 16:11:16;;;;;;;6.80;5.05;;;12.30;75.40;;;;;;5064465;28;20273;-88
2021/10/16 16:13:49;;;;;;;6.35;5.15;;;12.30;76.80;;;;;;5152375;22;20241;-87
2021/10/16 16:16:16;;;;;;;5.75;5.00;;;12.30;77.10;;;;;;5030670;28;20655;-88
2021/10/16 16:18:58;;;;;;;5.93;4.93;;;12.20;77.60;;;;;;5024112;28;20279;-88
2021/10/16 16:24:57;;;;;;;6.80;5.72;;;12.00;78.70;;;;;;5023860;28;20187;-86
2021/10/16 16:27:41;;;;;;;5.93;5.32;;;11.80;80.30;;;;;;5024307;28;20558;-88
2021/10/16 16:30:09;;;;;;;7.93;6.45;;;11.70;81.00;;;;;;5018932;28;20711;-91